sensor_id;sensor_type;location;lat;lon;timestamp;P1;durP1;ratioP1;P2;durP2;ratioP2
20044;SDS011;10183;47.808;9.476;2024-01-25T00:00:50;19.07;;;17.27;;
20044;SDS011;10183;47.808;9.476;2024-01-25T00:03:16;17.60;;;16.20;;
20044;SDS011;10183;47.808;9.476;2024-01-25T00:05:42;17.43;;;16.03;;
20044;SDS011;10183;47.808;9.476;2024-01-25T00:08:08;17.77;;;16.27;;
20044;SDS011;10183;47.808;9.476;2024-01-25T00:10:34;17.73;;;16.30;;
20044;SDS011;10183;47.808;9.476;2024-01-25T00:12:59;18.53;;;17.03;;
20044;SDS011;10183;47.808;9.476;2024-01-25T00:15:26;19.77;;;18.00;;
20044;SDS011;10183;47.808;9.476;2024-01-25T00:17:52;18.40;;;16.60;;
20044;SDS011;10183;47.808;9.476;2024-01-25T00:20:17;19.80;;;16.97;;
20044;SDS011;10183;47.808;9.476;2024-01-25T00:22:43;16.23;;;14.83;;
20044;SDS011;10183;47.808;9.476;2024-01-25T00:25:09;17.50;;;15.93;;
20044;SDS011;10183;47.808;9.476;2024-01-25T00:27:34;18.90;;;17.30;;
20044;SDS011;10183;47.808;9.476;2024-01-25T00:30:00;17.90;;;16.27;;
20044;SDS011;10183;47.808;9.476;2024-01-25T00:32:26;17.97;;;16.43;;
20044;SDS011;10183;47.808;9.476;2024-01-25T00:34:51;18.07;;;16.43;;
20044;SDS011;10183;47.808;9.476;2024-01-25T00:37:17;17.97;;;16.30;;
20044;SDS011;10183;47.808;9.476;2024-01-25T00:39:43;18.37;;;16.57;;
20044;SDS011;10183;47.808;9.476;2024-01-25T00:42:10;17.33;;;15.67;;
20044;SDS011;10183;47.808;9.476;2024-01-25T00:44:39;17.93;;;16.43;;
20044;SDS011;10183;47.808;9.476;2024-01-25T00:47:05;18.60;;;16.97;;
20044;SDS011;10183;47.808;9.476;2024-01-25T00:49:31;18.07;;;16.50;;
20044;SDS011;10183;47.808;9.476;2024-01-25T00:51:58;16.83;;;15.17;;
20044;SDS011;10183;47.808;9.476;2024-01-25T00:54:27;17.03;;;15.53;;
20044;SDS011;10183;47.808;9.476;2024-01-25T00:56:53;17.73;;;16.10;;
20044;SDS011;10183;47.808;9.476;2024-01-25T00:59:19;19.60;;;16.60;;
20044;SDS011;10183;47.808;9.476;2024-01-25T01:01:46;16.13;;;14.90;;
20044;SDS011;10183;47.808;9.476;2024-01-25T01:04:13;17.67;;;15.83;;
20044;SDS011;10183;47.808;9.476;2024-01-25T01:06:41;16.83;;;15.17;;
20044;SDS011;10183;47.808;9.476;2024-01-25T01:09:07;16.93;;;15.23;;
20044;SDS011;10183;47.808;9.476;2024-01-25T01:11:34;16.30;;;15.00;;
20044;SDS011;10183;47.808;9.476;2024-01-25T01:14:01;17.30;;;15.70;;
20044;SDS011;10183;47.808;9.476;2024-01-25T01:16:27;18.23;;;16.10;;
20044;SDS011;10183;47.808;9.476;2024-01-25T01:18:53;18.07;;;16.23;;
20044;SDS011;10183;47.808;9.476;2024-01-25T01:21:19;16.10;;;14.90;;
20044;SDS011;10183;47.808;9.476;2024-01-25T01:23:46;17.67;;;15.80;;
20044;SDS011;10183;47.808;9.476;2024-01-25T01:26:11;16.23;;;14.90;;
20044;SDS011;10183;47.808;9.476;2024-01-25T01:28:37;14.80;;;13.50;;
20044;SDS011;10183;47.808;9.476;2024-01-25T01:31:03;16.57;;;15.00;;
20044;SDS011;10183;47.808;9.476;2024-01-25T01:33:28;16.73;;;15.13;;
20044;SDS011;10183;47.808;9.476;2024-01-25T01:35:55;17.27;;;15.57;;
20044;SDS011;10183;47.808;9.476;2024-01-25T01:38:20;18.33;;;15.80;;
20044;SDS011;10183;47.808;9.476;2024-01-25T01:40:46;17.47;;;15.67;;
20044;SDS011;10183;47.808;9.476;2024-01-25T01:43:20;16.83;;;15.13;;
20044;SDS011;10183;47.808;9.476;2024-01-25T01:45:48;17.90;;;16.20;;
20044;SDS011;10183;47.808;9.476;2024-01-25T01:48:14;21.03;;;17.43;;
20044;SDS011;10183;47.808;9.476;2024-01-25T01:50:41;19.03;;;17.10;;
20044;SDS011;10183;47.808;9.476;2024-01-25T01:53:10;18.90;;;16.90;;
20044;SDS011;10183;47.808;9.476;2024-01-25T01:55:36;20.13;;;18.03;;
20044;SDS011;10183;47.808;9.476;2024-01-25T01:58:03;20.63;;;18.53;;
20044;SDS011;10183;47.808;9.476;2024-01-25T02:00:30;20.30;;;18.50;;
20044;SDS011;10183;47.808;9.476;2024-01-25T02:02:55;20.73;;;18.57;;
20044;SDS011;10183;47.808;9.476;2024-01-25T02:05:24;18.90;;;17.07;;
20044;SDS011;10183;47.808;9.476;2024-01-25T02:07:50;20.53;;;17.13;;
20044;SDS011;10183;47.808;9.476;2024-01-25T02:10:17;17.77;;;15.93;;
20044;SDS011;10183;47.808;9.476;2024-01-25T02:12:43;19.77;;;17.60;;
20044;SDS011;10183;47.808;9.476;2024-01-25T02:15:08;21.20;;;19.10;;
20044;SDS011;10183;47.808;9.476;2024-01-25T02:17:34;21.27;;;19.23;;
20044;SDS011;10183;47.808;9.476;2024-01-25T02:20:00;22.93;;;19.30;;
20044;SDS011;10183;47.808;9.476;2024-01-25T02:22:28;20.80;;;18.80;;
20044;SDS011;10183;47.808;9.476;2024-01-25T02:24:53;19.33;;;17.40;;
20044;SDS011;10183;47.808;9.476;2024-01-25T02:27:19;19.23;;;17.20;;
20044;SDS011;10183;47.808;9.476;2024-01-25T02:29:45;18.40;;;16.50;;
20044;SDS011;10183;47.808;9.476;2024-01-25T02:32:10;18.90;;;17.00;;
20044;SDS011;10183;47.808;9.476;2024-01-25T02:34:36;21.07;;;18.93;;
20044;SDS011;10183;47.808;9.476;2024-01-25T02:37:02;20.53;;;18.53;;
20044;SDS011;10183;47.808;9.476;2024-01-25T02:39:27;21.37;;;19.10;;
20044;SDS011;10183;47.808;9.476;2024-01-25T02:41:53;21.10;;;18.90;;
20044;SDS011;10183;47.808;9.476;2024-01-25T02:44:19;21.17;;;19.23;;
20044;SDS011;10183;47.808;9.476;2024-01-25T02:46:44;20.97;;;18.97;;
20044;SDS011;10183;47.808;9.476;2024-01-25T02:49:11;21.37;;;19.37;;
20044;SDS011;10183;47.808;9.476;2024-01-25T02:51:37;22.10;;;19.93;;
20044;SDS011;10183;47.808;9.476;2024-01-25T02:54:02;21.93;;;19.93;;
20044;SDS011;10183;47.808;9.476;2024-01-25T02:56:28;22.07;;;19.73;;
20044;SDS011;10183;47.808;9.476;2024-01-25T02:59:00;22.93;;;20.83;;
20044;SDS011;10183;47.808;9.476;2024-01-25T03:01:28;23.57;;;21.13;;
20044;SDS011;10183;47.808;9.476;2024-01-25T03:04:03;21.77;;;19.67;;
20044;SDS011;10183;47.808;9.476;2024-01-25T03:06:28;22.87;;;18.20;;
20044;SDS011;10183;47.808;9.476;2024-01-25T03:08:54;20.30;;;18.20;;
20044;SDS011;10183;47.808;9.476;2024-01-25T03:11:19;20.03;;;18.03;;
20044;SDS011;10183;47.808;9.476;2024-01-25T03:13:45;24.30;;;19.03;;
20044;SDS011;10183;47.808;9.476;2024-01-25T03:16:11;23.63;;;20.40;;
20044;SDS011;10183;47.808;9.476;2024-01-25T03:18:36;23.33;;;20.90;;
20044;SDS011;10183;47.808;9.476;2024-01-25T03:21:02;23.37;;;20.87;;
20044;SDS011;10183;47.808;9.476;2024-01-25T03:23:28;26.27;;;19.57;;
20044;SDS011;10183;47.808;9.476;2024-01-25T03:25:53;24.73;;;19.30;;
20044;SDS011;10183;47.808;9.476;2024-01-25T03:28:19;22.27;;;20.07;;
20044;SDS011;10183;47.808;9.476;2024-01-25T03:30:44;22.50;;;20.40;;
20044;SDS011;10183;47.808;9.476;2024-01-25T03:33:10;23.87;;;20.47;;
20044;SDS011;10183;47.808;9.476;2024-01-25T03:35:36;23.83;;;20.93;;
20044;SDS011;10183;47.808;9.476;2024-01-25T03:38:01;22.37;;;19.87;;
20044;SDS011;10183;47.808;9.476;2024-01-25T03:40:27;24.77;;;19.50;;
20044;SDS011;10183;47.808;9.476;2024-01-25T03:42:53;23.53;;;19.50;;
20044;SDS011;10183;47.808;9.476;2024-01-25T03:45:18;22.30;;;19.90;;
20044;SDS011;10183;47.808;9.476;2024-01-25T03:47:44;22.97;;;20.73;;
20044;SDS011;10183;47.808;9.476;2024-01-25T03:50:09;23.90;;;21.10;;
20044;SDS011;10183;47.808;9.476;2024-01-25T03:52:35;26.67;;;20.93;;
20044;SDS011;10183;47.808;9.476;2024-01-25T03:55:01;23.23;;;20.83;;
20044;SDS011;10183;47.808;9.476;2024-01-25T03:57:26;21.27;;;18.93;;
20044;SDS011;10183;47.808;9.476;2024-01-25T03:59:52;21.80;;;19.60;;
20044;SDS011;10183;47.808;9.476;2024-01-25T04:02:18;22.13;;;19.83;;
20044;SDS011;10183;47.808;9.476;2024-01-25T04:04:43;20.53;;;18.63;;
20044;SDS011;10183;47.808;9.476;2024-01-25T04:07:09;21.63;;;19.30;;
20044;SDS011;10183;47.808;9.476;2024-01-25T04:09:35;22.47;;;20.40;;
20044;SDS011;10183;47.808;9.476;2024-01-25T04:12:00;27.37;;;20.43;;
20044;SDS011;10183;47.808;9.476;2024-01-25T04:14:26;22.30;;;18.10;;
20044;SDS011;10183;47.808;9.476;2024-01-25T04:16:53;20.00;;;18.10;;
20044;SDS011;10183;47.808;9.476;2024-01-25T04:19:18;23.47;;;21.07;;
20044;SDS011;10183;47.808;9.476;2024-01-25T04:21:45;20.47;;;18.10;;
20044;SDS011;10183;47.808;9.476;2024-01-25T04:24:11;21.77;;;18.77;;
20044;SDS011;10183;47.808;9.476;2024-01-25T04:26:37;20.70;;;18.60;;
20044;SDS011;10183;47.808;9.476;2024-01-25T04:29:02;20.87;;;18.40;;
20044;SDS011;10183;47.808;9.476;2024-01-25T04:31:28;21.90;;;18.10;;
20044;SDS011;10183;47.808;9.476;2024-01-25T04:33:53;21.20;;;19.23;;
20044;SDS011;10183;47.808;9.476;2024-01-25T04:36:19;23.67;;;19.17;;
20044;SDS011;10183;47.808;9.476;2024-01-25T04:38:45;23.33;;;21.07;;
20044;SDS011;10183;47.808;9.476;2024-01-25T04:41:11;21.20;;;19.40;;
20044;SDS011;10183;47.808;9.476;2024-01-25T04:43:36;19.13;;;17.60;;
20044;SDS011;10183;47.808;9.476;2024-01-25T04:46:02;19.57;;;17.97;;
20044;SDS011;10183;47.808;9.476;2024-01-25T04:48:29;21.00;;;19.00;;
20044;SDS011;10183;47.808;9.476;2024-01-25T04:50:56;20.40;;;18.50;;
20044;SDS011;10183;47.808;9.476;2024-01-25T04:53:23;20.10;;;18.30;;
20044;SDS011;10183;47.808;9.476;2024-01-25T04:55:48;20.00;;;18.13;;
20044;SDS011;10183;47.808;9.476;2024-01-25T04:58:14;21.73;;;19.93;;
20044;SDS011;10183;47.808;9.476;2024-01-25T05:00:39;21.20;;;19.20;;
20044;SDS011;10183;47.808;9.476;2024-01-25T05:03:05;21.20;;;19.17;;
20044;SDS011;10183;47.808;9.476;2024-01-25T05:05:31;19.50;;;17.50;;
20044;SDS011;10183;47.808;9.476;2024-01-25T05:07:56;18.80;;;17.00;;
20044;SDS011;10183;47.808;9.476;2024-01-25T05:10:22;18.23;;;16.63;;
20044;SDS011;10183;47.808;9.476;2024-01-25T05:12:48;19.87;;;17.97;;
20044;SDS011;10183;47.808;9.476;2024-01-25T05:15:14;20.13;;;18.13;;
20044;SDS011;10183;47.808;9.476;2024-01-25T05:17:39;20.93;;;18.73;;
20044;SDS011;10183;47.808;9.476;2024-01-25T05:20:05;20.77;;;18.80;;
20044;SDS011;10183;47.808;9.476;2024-01-25T05:22:31;19.70;;;17.80;;
20044;SDS011;10183;47.808;9.476;2024-01-25T05:24:57;18.57;;;17.03;;
20044;SDS011;10183;47.808;9.476;2024-01-25T05:27:23;19.67;;;17.63;;
20044;SDS011;10183;47.808;9.476;2024-01-25T05:29:48;19.57;;;17.70;;
20044;SDS011;10183;47.808;9.476;2024-01-25T05:32:14;19.73;;;17.83;;
20044;SDS011;10183;47.808;9.476;2024-01-25T05:34:40;20.70;;;18.57;;
20044;SDS011;10183;47.808;9.476;2024-01-25T05:37:05;21.33;;;19.23;;
20044;SDS011;10183;47.808;9.476;2024-01-25T05:39:31;21.43;;;19.53;;
20044;SDS011;10183;47.808;9.476;2024-01-25T05:41:57;22.13;;;20.23;;
20044;SDS011;10183;47.808;9.476;2024-01-25T05:44:23;19.50;;;17.70;;
20044;SDS011;10183;47.808;9.476;2024-01-25T05:46:48;19.33;;;17.63;;
20044;SDS011;10183;47.808;9.476;2024-01-25T05:49:14;20.17;;;18.10;;
20044;SDS011;10183;47.808;9.476;2024-01-25T05:51:40;19.90;;;18.20;;
20044;SDS011;10183;47.808;9.476;2024-01-25T05:54:05;19.30;;;17.70;;
20044;SDS011;10183;47.808;9.476;2024-01-25T05:56:31;18.57;;;17.07;;
20044;SDS011;10183;47.808;9.476;2024-01-25T05:58:57;18.77;;;17.07;;
20044;SDS011;10183;47.808;9.476;2024-01-25T06:01:22;18.17;;;16.57;;
20044;SDS011;10183;47.808;9.476;2024-01-25T06:03:48;19.73;;;17.60;;
20044;SDS011;10183;47.808;9.476;2024-01-25T06:06:13;19.40;;;17.70;;
20044;SDS011;10183;47.808;9.476;2024-01-25T06:08:39;18.80;;;17.17;;
20044;SDS011;10183;47.808;9.476;2024-01-25T06:11:05;34.30;;;31.57;;
20044;SDS011;10183;47.808;9.476;2024-01-25T06:13:31;22.00;;;20.20;;
20044;SDS011;10183;47.808;9.476;2024-01-25T06:15:57;23.37;;;21.43;;
20044;SDS011;10183;47.808;9.476;2024-01-25T06:18:22;25.20;;;23.30;;
20044;SDS011;10183;47.808;9.476;2024-01-25T06:20:48;22.43;;;20.43;;
20044;SDS011;10183;47.808;9.476;2024-01-25T06:23:15;36.73;;;34.00;;
20044;SDS011;10183;47.808;9.476;2024-01-25T06:25:41;18.23;;;16.63;;
20044;SDS011;10183;47.808;9.476;2024-01-25T06:28:06;19.20;;;16.27;;
20044;SDS011;10183;47.808;9.476;2024-01-25T06:30:32;19.20;;;17.47;;
20044;SDS011;10183;47.808;9.476;2024-01-25T06:32:57;19.50;;;17.07;;
20044;SDS011;10183;47.808;9.476;2024-01-25T06:35:23;19.80;;;17.70;;
20044;SDS011;10183;47.808;9.476;2024-01-25T06:37:49;19.67;;;17.83;;
20044;SDS011;10183;47.808;9.476;2024-01-25T06:40:15;21.67;;;19.87;;
20044;SDS011;10183;47.808;9.476;2024-01-25T06:42:41;22.97;;;20.87;;
20044;SDS011;10183;47.808;9.476;2024-01-25T06:45:07;24.20;;;22.10;;
20044;SDS011;10183;47.808;9.476;2024-01-25T06:47:34;23.40;;;21.40;;
20044;SDS011;10183;47.808;9.476;2024-01-25T06:50:00;24.67;;;22.57;;
20044;SDS011;10183;47.808;9.476;2024-01-25T06:52:25;22.67;;;20.47;;
20044;SDS011;10183;47.808;9.476;2024-01-25T06:54:51;22.30;;;20.20;;
20044;SDS011;10183;47.808;9.476;2024-01-25T06:57:17;26.90;;;24.70;;
20044;SDS011;10183;47.808;9.476;2024-01-25T06:59:43;24.23;;;22.00;;
20044;SDS011;10183;47.808;9.476;2024-01-25T07:02:08;22.10;;;20.10;;
20044;SDS011;10183;47.808;9.476;2024-01-25T07:04:34;24.77;;;22.47;;
20044;SDS011;10183;47.808;9.476;2024-01-25T07:07:00;22.03;;;19.93;;
20044;SDS011;10183;47.808;9.476;2024-01-25T07:09:25;21.13;;;19.23;;
20044;SDS011;10183;47.808;9.476;2024-01-25T07:11:51;30.30;;;26.07;;
20044;SDS011;10183;47.808;9.476;2024-01-25T07:14:17;28.70;;;25.30;;
20044;SDS011;10183;47.808;9.476;2024-01-25T07:16:42;29.50;;;23.90;;
20044;SDS011;10183;47.808;9.476;2024-01-25T07:19:08;27.83;;;23.50;;
20044;SDS011;10183;47.808;9.476;2024-01-25T07:21:34;26.73;;;22.30;;
20044;SDS011;10183;47.808;9.476;2024-01-25T07:24:00;29.80;;;26.80;;
20044;SDS011;10183;47.808;9.476;2024-01-25T07:26:27;29.30;;;26.20;;
20044;SDS011;10183;47.808;9.476;2024-01-25T07:28:53;29.40;;;25.57;;
20044;SDS011;10183;47.808;9.476;2024-01-25T07:31:23;29.57;;;26.73;;
20044;SDS011;10183;47.808;9.476;2024-01-25T07:33:50;30.07;;;27.17;;
20044;SDS011;10183;47.808;9.476;2024-01-25T07:36:16;27.30;;;24.80;;
20044;SDS011;10183;47.808;9.476;2024-01-25T07:38:43;24.23;;;21.57;;
20044;SDS011;10183;47.808;9.476;2024-01-25T07:41:09;23.47;;;18.90;;
20044;SDS011;10183;47.808;9.476;2024-01-25T07:43:34;25.77;;;20.80;;
20044;SDS011;10183;47.808;9.476;2024-01-25T07:46:00;23.67;;;18.33;;
20044;SDS011;10183;47.808;9.476;2024-01-25T07:48:26;21.20;;;19.00;;
20044;SDS011;10183;47.808;9.476;2024-01-25T07:50:51;20.30;;;17.00;;
20044;SDS011;10183;47.808;9.476;2024-01-25T07:53:17;18.03;;;16.53;;
20044;SDS011;10183;47.808;9.476;2024-01-25T07:55:42;18.63;;;17.03;;
20044;SDS011;10183;47.808;9.476;2024-01-25T07:58:08;19.10;;;17.60;;
20044;SDS011;10183;47.808;9.476;2024-01-25T08:00:34;18.30;;;16.60;;
20044;SDS011;10183;47.808;9.476;2024-01-25T08:02:59;17.37;;;15.77;;
20044;SDS011;10183;47.808;9.476;2024-01-25T08:05:25;17.27;;;15.73;;
20044;SDS011;10183;47.808;9.476;2024-01-25T08:07:51;19.60;;;17.67;;
20044;SDS011;10183;47.808;9.476;2024-01-25T08:10:16;18.13;;;16.33;;
20044;SDS011;10183;47.808;9.476;2024-01-25T08:12:42;19.27;;;17.47;;
20044;SDS011;10183;47.808;9.476;2024-01-25T08:15:09;20.57;;;18.70;;
20044;SDS011;10183;47.808;9.476;2024-01-25T08:17:36;17.70;;;15.87;;
20044;SDS011;10183;47.808;9.476;2024-01-25T08:20:02;17.63;;;16.03;;
20044;SDS011;10183;47.808;9.476;2024-01-25T08:22:31;17.63;;;16.03;;
20044;SDS011;10183;47.808;9.476;2024-01-25T08:24:57;17.47;;;15.87;;
20044;SDS011;10183;47.808;9.476;2024-01-25T08:27:23;18.50;;;16.93;;
20044;SDS011;10183;47.808;9.476;2024-01-25T08:29:49;16.10;;;14.40;;
20044;SDS011;10183;47.808;9.476;2024-01-25T08:32:15;16.60;;;15.10;;
20044;SDS011;10183;47.808;9.476;2024-01-25T08:34:40;16.20;;;15.00;;
20044;SDS011;10183;47.808;9.476;2024-01-25T08:37:06;16.60;;;15.30;;
20044;SDS011;10183;47.808;9.476;2024-01-25T08:39:32;17.10;;;15.70;;
20044;SDS011;10183;47.808;9.476;2024-01-25T08:41:58;18.43;;;16.73;;
20044;SDS011;10183;47.808;9.476;2024-01-25T08:44:27;18.60;;;17.00;;
20044;SDS011;10183;47.808;9.476;2024-01-25T08:46:52;18.97;;;17.37;;
20044;SDS011;10183;47.808;9.476;2024-01-25T08:49:18;18.10;;;16.60;;
20044;SDS011;10183;47.808;9.476;2024-01-25T08:51:43;20.10;;;18.30;;
20044;SDS011;10183;47.808;9.476;2024-01-25T08:54:09;22.20;;;20.47;;
20044;SDS011;10183;47.808;9.476;2024-01-25T08:56:35;22.50;;;20.60;;
20044;SDS011;10183;47.808;9.476;2024-01-25T08:59:00;22.40;;;20.50;;
20044;SDS011;10183;47.808;9.476;2024-01-25T09:01:26;23.33;;;21.33;;
20044;SDS011;10183;47.808;9.476;2024-01-25T09:03:52;23.00;;;21.00;;
20044;SDS011;10183;47.808;9.476;2024-01-25T09:06:17;23.70;;;21.70;;
20044;SDS011;10183;47.808;9.476;2024-01-25T09:08:43;22.40;;;20.40;;
20044;SDS011;10183;47.808;9.476;2024-01-25T09:11:09;20.47;;;18.50;;
20044;SDS011;10183;47.808;9.476;2024-01-25T09:13:34;19.50;;;17.80;;
20044;SDS011;10183;47.808;9.476;2024-01-25T09:16:00;19.87;;;18.13;;
20044;SDS011;10183;47.808;9.476;2024-01-25T09:18:25;20.47;;;18.67;;
20044;SDS011;10183;47.808;9.476;2024-01-25T09:20:51;20.90;;;18.93;;
20044;SDS011;10183;47.808;9.476;2024-01-25T09:23:17;20.80;;;18.80;;
20044;SDS011;10183;47.808;9.476;2024-01-25T09:25:43;20.70;;;18.70;;
20044;SDS011;10183;47.808;9.476;2024-01-25T09:28:09;21.10;;;19.20;;
20044;SDS011;10183;47.808;9.476;2024-01-25T09:30:37;21.23;;;19.33;;
20044;SDS011;10183;47.808;9.476;2024-01-25T09:33:04;20.03;;;17.93;;
20044;SDS011;10183;47.808;9.476;2024-01-25T09:35:30;21.30;;;19.30;;
20044;SDS011;10183;47.808;9.476;2024-01-25T09:37:55;20.20;;;18.40;;
20044;SDS011;10183;47.808;9.476;2024-01-25T09:40:21;19.20;;;17.50;;
20044;SDS011;10183;47.808;9.476;2024-01-25T09:42:47;20.20;;;18.20;;
20044;SDS011;10183;47.808;9.476;2024-01-25T09:45:16;19.67;;;17.77;;
20044;SDS011;10183;47.808;9.476;2024-01-25T09:47:46;17.73;;;16.00;;
20044;SDS011;10183;47.808;9.476;2024-01-25T09:50:13;18.13;;;16.57;;
20044;SDS011;10183;47.808;9.476;2024-01-25T09:52:39;18.53;;;16.83;;
20044;SDS011;10183;47.808;9.476;2024-01-25T09:55:13;19.27;;;17.47;;
20044;SDS011;10183;47.808;9.476;2024-01-25T09:57:45;19.60;;;17.60;;
20044;SDS011;10183;47.808;9.476;2024-01-25T10:00:13;20.70;;;18.57;;
20044;SDS011;10183;47.808;9.476;2024-01-25T10:02:39;21.20;;;19.30;;
20044;SDS011;10183;47.808;9.476;2024-01-25T10:05:05;22.97;;;20.47;;
20044;SDS011;10183;47.808;9.476;2024-01-25T10:10:06;24.10;;;21.90;;
20044;SDS011;10183;47.808;9.476;2024-01-25T10:12:32;24.90;;;22.37;;
20044;SDS011;10183;47.808;9.476;2024-01-25T10:14:58;24.47;;;22.27;;
20044;SDS011;10183;47.808;9.476;2024-01-25T10:17:25;19.47;;;17.53;;
20044;SDS011;10183;47.808;9.476;2024-01-25T10:19:52;20.10;;;18.00;;
20044;SDS011;10183;47.808;9.476;2024-01-25T10:22:18;18.70;;;17.00;;
20044;SDS011;10183;47.808;9.476;2024-01-25T10:24:44;20.27;;;18.47;;
20044;SDS011;10183;47.808;9.476;2024-01-25T10:27:10;19.60;;;17.83;;
20044;SDS011;10183;47.808;9.476;2024-01-25T10:29:36;21.03;;;19.00;;
20044;SDS011;10183;47.808;9.476;2024-01-25T10:32:05;19.90;;;18.07;;
20044;SDS011;10183;47.808;9.476;2024-01-25T10:34:33;20.13;;;18.33;;
20044;SDS011;10183;47.808;9.476;2024-01-25T10:37:02;19.93;;;18.13;;
20044;SDS011;10183;47.808;9.476;2024-01-25T10:39:29;20.43;;;18.53;;
20044;SDS011;10183;47.808;9.476;2024-01-25T10:41:56;19.90;;;18.00;;
20044;SDS011;10183;47.808;9.476;2024-01-25T10:44:24;20.80;;;18.60;;
20044;SDS011;10183;47.808;9.476;2024-01-25T10:46:50;19.90;;;17.97;;
20044;SDS011;10183;47.808;9.476;2024-01-25T10:49:18;20.57;;;18.53;;
20044;SDS011;10183;47.808;9.476;2024-01-25T10:51:44;18.83;;;17.10;;
20044;SDS011;10183;47.808;9.476;2024-01-25T10:54:14;18.20;;;16.50;;
20044;SDS011;10183;47.808;9.476;2024-01-25T10:56:43;17.50;;;15.93;;
20044;SDS011;10183;47.808;9.476;2024-01-25T10:59:11;18.17;;;16.47;;
20044;SDS011;10183;47.808;9.476;2024-01-25T11:01:37;20.90;;;19.00;;
20044;SDS011;10183;47.808;9.476;2024-01-25T11:04:02;23.53;;;21.33;;
20044;SDS011;10183;47.808;9.476;2024-01-25T11:06:36;26.93;;;24.43;;
20044;SDS011;10183;47.808;9.476;2024-01-25T11:09:05;29.87;;;26.97;;
20044;SDS011;10183;47.808;9.476;2024-01-25T11:11:32;29.67;;;27.00;;
20044;SDS011;10183;47.808;9.476;2024-01-25T11:13:58;28.53;;;25.93;;
20044;SDS011;10183;47.808;9.476;2024-01-25T11:16:42;27.20;;;24.63;;
20044;SDS011;10183;47.808;9.476;2024-01-25T11:19:18;28.87;;;26.07;;
20044;SDS011;10183;47.808;9.476;2024-01-25T11:21:47;29.80;;;26.97;;
20044;SDS011;10183;47.808;9.476;2024-01-25T11:24:15;27.70;;;25.20;;
20044;SDS011;10183;47.808;9.476;2024-01-25T11:26:55;27.83;;;25.43;;
20044;SDS011;10183;47.808;9.476;2024-01-25T11:29:21;31.03;;;28.23;;
20044;SDS011;10183;47.808;9.476;2024-01-25T11:31:49;30.37;;;27.67;;
20044;SDS011;10183;47.808;9.476;2024-01-25T11:34:16;29.83;;;27.07;;
20044;SDS011;10183;47.808;9.476;2024-01-25T11:36:43;31.50;;;28.57;;
20044;SDS011;10183;47.808;9.476;2024-01-25T11:39:09;29.27;;;26.37;;
20044;SDS011;10183;47.808;9.476;2024-01-25T11:41:36;26.93;;;24.37;;
20044;SDS011;10183;47.808;9.476;2024-01-25T11:44:02;27.87;;;25.07;;
20044;SDS011;10183;47.808;9.476;2024-01-25T11:46:28;27.80;;;25.03;;
20044;SDS011;10183;47.808;9.476;2024-01-25T11:48:55;28.37;;;25.57;;
20044;SDS011;10183;47.808;9.476;2024-01-25T11:51:21;28.83;;;26.13;;
20044;SDS011;10183;47.808;9.476;2024-01-25T11:53:47;30.10;;;27.37;;
20044;SDS011;10183;47.808;9.476;2024-01-25T11:56:13;27.30;;;24.80;;
20044;SDS011;10183;47.808;9.476;2024-01-25T11:58:43;25.07;;;22.77;;
20044;SDS011;10183;47.808;9.476;2024-01-25T12:01:12;24.07;;;21.97;;
20044;SDS011;10183;47.808;9.476;2024-01-25T12:03:38;24.37;;;22.17;;
20044;SDS011;10183;47.808;9.476;2024-01-25T12:06:05;27.23;;;24.73;;
20044;SDS011;10183;47.808;9.476;2024-01-25T12:08:34;29.07;;;26.47;;
20044;SDS011;10183;47.808;9.476;2024-01-25T12:11:18;23.77;;;21.67;;
20044;SDS011;10183;47.808;9.476;2024-01-25T12:13:47;19.80;;;18.00;;
20044;SDS011;10183;47.808;9.476;2024-01-25T12:16:12;19.30;;;17.30;;
20044;SDS011;10183;47.808;9.476;2024-01-25T12:18:40;20.27;;;18.40;;
20044;SDS011;10183;47.808;9.476;2024-01-25T12:21:06;21.37;;;19.27;;
20044;SDS011;10183;47.808;9.476;2024-01-25T12:23:33;22.13;;;20.03;;
20044;SDS011;10183;47.808;9.476;2024-01-25T12:26:00;20.93;;;18.93;;
20044;SDS011;10183;47.808;9.476;2024-01-25T12:28:27;21.13;;;19.13;;
20044;SDS011;10183;47.808;9.476;2024-01-25T12:30:54;20.40;;;18.50;;
20044;SDS011;10183;47.808;9.476;2024-01-25T12:33:20;20.33;;;18.40;;
20044;SDS011;10183;47.808;9.476;2024-01-25T12:35:45;19.17;;;17.50;;
20044;SDS011;10183;47.808;9.476;2024-01-25T12:38:11;20.10;;;18.30;;
20044;SDS011;10183;47.808;9.476;2024-01-25T12:40:37;18.90;;;17.30;;
20044;SDS011;10183;47.808;9.476;2024-01-25T12:43:02;18.23;;;16.63;;
20044;SDS011;10183;47.808;9.476;2024-01-25T12:45:28;21.57;;;19.77;;
20044;SDS011;10183;47.808;9.476;2024-01-25T12:47:54;17.77;;;16.07;;
20044;SDS011;10183;47.808;9.476;2024-01-25T12:50:20;17.10;;;15.57;;
20044;SDS011;10183;47.808;9.476;2024-01-25T12:52:46;18.60;;;17.00;;
20044;SDS011;10183;47.808;9.476;2024-01-25T12:55:12;16.47;;;15.07;;
20044;SDS011;10183;47.808;9.476;2024-01-25T12:57:37;16.37;;;14.77;;
20044;SDS011;10183;47.808;9.476;2024-01-25T13:00:03;17.60;;;16.10;;
20044;SDS011;10183;47.808;9.476;2024-01-25T13:02:29;16.83;;;15.33;;
20044;SDS011;10183;47.808;9.476;2024-01-25T13:04:55;15.23;;;13.80;;
20044;SDS011;10183;47.808;9.476;2024-01-25T13:07:20;16.00;;;14.53;;
20044;SDS011;10183;47.808;9.476;2024-01-25T13:09:46;16.37;;;14.97;;
20044;SDS011;10183;47.808;9.476;2024-01-25T13:12:12;15.23;;;13.93;;
20044;SDS011;10183;47.808;9.476;2024-01-25T13:14:39;15.00;;;13.80;;
20044;SDS011;10183;47.808;9.476;2024-01-25T13:17:05;15.30;;;14.20;;
20044;SDS011;10183;47.808;9.476;2024-01-25T13:19:33;15.33;;;14.03;;
20044;SDS011;10183;47.808;9.476;2024-01-25T13:21:59;16.17;;;14.67;;
20044;SDS011;10183;47.808;9.476;2024-01-25T13:24:25;23.10;;;21.40;;
20044;SDS011;10183;47.808;9.476;2024-01-25T13:26:51;23.40;;;21.50;;
20044;SDS011;10183;47.808;9.476;2024-01-25T13:29:16;19.97;;;18.47;;
20044;SDS011;10183;47.808;9.476;2024-01-25T13:31:42;20.07;;;18.57;;
20044;SDS011;10183;47.808;9.476;2024-01-25T13:34:08;15.33;;;14.13;;
20044;SDS011;10183;47.808;9.476;2024-01-25T13:36:34;16.80;;;15.40;;
20044;SDS011;10183;47.808;9.476;2024-01-25T13:39:00;19.87;;;18.13;;
20044;SDS011;10183;47.808;9.476;2024-01-25T13:41:26;15.93;;;14.60;;
20044;SDS011;10183;47.808;9.476;2024-01-25T13:43:52;17.20;;;15.80;;
20044;SDS011;10183;47.808;9.476;2024-01-25T13:46:18;16.07;;;14.77;;
20044;SDS011;10183;47.808;9.476;2024-01-25T13:48:44;16.20;;;14.90;;
20044;SDS011;10183;47.808;9.476;2024-01-25T13:51:11;16.43;;;14.83;;
20044;SDS011;10183;47.808;9.476;2024-01-25T13:53:37;17.47;;;16.03;;
20044;SDS011;10183;47.808;9.476;2024-01-25T13:56:03;18.30;;;16.60;;
20044;SDS011;10183;47.808;9.476;2024-01-25T13:58:29;19.80;;;18.00;;
20044;SDS011;10183;47.808;9.476;2024-01-25T14:00:55;20.50;;;18.50;;
20044;SDS011;10183;47.808;9.476;2024-01-25T14:03:21;17.30;;;15.90;;
20044;SDS011;10183;47.808;9.476;2024-01-25T14:05:47;15.17;;;13.93;;
20044;SDS011;10183;47.808;9.476;2024-01-25T14:08:12;16.37;;;15.00;;
20044;SDS011;10183;47.808;9.476;2024-01-25T14:10:38;15.90;;;14.70;;
20044;SDS011;10183;47.808;9.476;2024-01-25T14:13:04;14.80;;;13.70;;
20044;SDS011;10183;47.808;9.476;2024-01-25T14:15:30;14.90;;;13.70;;
20044;SDS011;10183;47.808;9.476;2024-01-25T14:17:56;14.93;;;13.83;;